Time;durP1;ratioP1;P1;durP2;ratioP2;P2;SDS_P1;SDS_P2;PMS_P1;PMS_P2;Temp;Humidity;BMP_temperature;BMP_pressure;BME280_temperature;BME280_humidity;BME280_pressure;Samples;Min_cycle;Max_cycle;Signal;HPM_P1;HPM_P2
2021/12/03 00:00:24;;;;;;;0.80;0.80;;;;;;;0.38;81.46;96255.00;29373;197;63011;-64
2021/12/03 00:00:59;;;;;;;1.45;1.45;;;;;;;0.35;81.72;96260.06;29371;228;64008;-68
2021/12/03 00:01:33;;;;;;;0.80;0.80;;;;;;;0.36;81.74;96257.09;29373;202;63005;-62
2021/12/03 00:02:05;;;;;;;1.00;1.00;;;;;;;0.36;81.56;96257.09;29373;224;63009;-66
2021/12/03 00:02:37;;;;;;;0.95;0.95;;;;;;;0.34;81.30;96267.25;29373;235;63005;-61
2021/12/03 00:03:09;;;;;;;0.80;0.80;;;;;;;0.26;81.71;96264.97;29373;272;63009;-67
2021/12/03 00:03:41;;;;;;;0.80;0.80;;;;;;;0.23;82.18;96268.13;29373;247;63005;-68
2021/12/03 00:04:12;;;;;;;0.80;0.80;;;;;;;0.19;82.34;96256.31;29373;244;63009;-64
2021/12/03 00:04:43;;;;;;;0.80;0.80;;;;;;;0.19;82.62;96264.31;29373;221;63004;-63
2021/12/03 00:05:14;;;;;;;1.20;1.20;;;;;;;0.14;82.92;96274.91;29371;209;64009;-66
2021/12/03 00:05:47;;;;;;;0.80;0.80;;;;;;;0.11;83.13;96268.19;29373;202;63004;-61
2021/12/03 00:06:19;;;;;;;0.80;0.80;;;;;;;0.15;83.20;96271.19;29373;218;63009;-70
2021/12/03 00:06:50;;;;;;;0.80;0.80;;;;;;;0.18;82.84;96270.72;29373;212;63004;-69
2021/12/03 00:07:22;;;;;;;0.80;0.80;;;;;;;0.19;82.41;96262.47;29373;205;63008;-62
2021/12/03 00:07:53;;;;;;;0.80;0.80;;;;;;;0.16;82.41;96268.28;29373;220;63005;-63
2021/12/03 00:08:25;;;;;;;0.80;0.80;;;;;;;0.13;82.68;96268.75;29373;215;63009;-62
2021/12/03 00:08:57;;;;;;;0.80;0.80;;;;;;;0.14;82.47;96269.56;29373;255;63005;-60
2021/12/03 00:09:34;;;;;;;0.90;0.90;;;;;;;0.18;82.61;96268.03;29371;212;64009;-62
2021/12/03 00:10:08;;;;;;;0.80;0.80;;;;;;;0.16;82.50;96267.47;29371;199;64005;-65
2021/12/03 00:10:40;;;;;;;0.80;0.80;;;;;;;0.15;82.40;96263.19;29373;248;63009;-60
2021/12/03 00:11:13;;;;;;;0.80;0.80;;;;;;;0.11;82.66;96270.88;29373;202;63005;-63
2021/12/03 00:11:44;;;;;;;0.80;0.80;;;;;;;0.09;82.79;96269.50;29373;232;63009;-63
2021/12/03 00:12:16;;;;;;;0.80;0.80;;;;;;;0.10;82.74;96268.44;29373;262;63004;-83
2021/12/03 00:12:47;;;;;;;0.80;0.80;;;;;;;0.10;82.76;96279.09;29373;197;63009;-62
2021/12/03 00:13:20;;;;;;;0.80;0.80;;;;;;;0.05;82.65;96276.34;29373;223;63004;-64
2021/12/03 00:13:51;;;;;;;0.90;0.90;;;;;;;0.06;82.65;96277.97;29373;234;63009;-63
2021/12/03 00:14:22;;;;;;;1.00;1.00;;;;;;;0.06;82.78;96280.63;29373;214;63004;-62
2021/12/03 00:14:53;;;;;;;0.80;0.80;;;;;;;0.02;82.90;96277.62;29373;238;63004;-65
2021/12/03 00:15:26;;;;;;;0.80;0.80;;;;;;;-0.02;83.13;96282.69;29371;211;64005;-63
2021/12/03 00:15:59;;;;;;;0.80;0.80;;;;;;;-0.01;82.81;96284.28;29373;253;63009;-64
2021/12/03 00:16:30;;;;;;;0.80;0.80;;;;;;;0.02;83.21;96287.50;29373;295;63005;-61
2021/12/03 00:17:03;;;;;;;0.80;0.80;;;;;;;0.07;82.97;96284.94;29373;216;63009;-63
2021/12/03 00:17:34;;;;;;;0.70;0.70;;;;;;;0.11;82.65;96292.22;29373;237;63005;-68
2021/12/03 00:18:05;;;;;;;1.05;1.05;;;;;;;0.12;82.53;96293.81;29373;266;63009;-64
2021/12/03 00:18:37;;;;;;;0.80;0.80;;;;;;;0.11;82.51;96284.19;29371;202;64005;-63
2021/12/03 00:19:08;;;;;;;0.90;0.90;;;;;;;0.09;82.30;96291.63;29373;214;63009;-61
2021/12/03 00:19:40;;;;;;;0.80;0.80;;;;;;;0.05;82.51;96292.34;29373;252;63004;-64
2021/12/03 00:20:16;;;;;;;0.80;0.80;;;;;;;0.06;82.43;96288.63;29373;213;63009;-61
2021/12/03 00:20:48;;;;;;;0.80;0.80;;;;;;;0.06;82.49;96294.78;29373;248;63004;-60
2021/12/03 00:21:22;;;;;;;0.80;0.80;;;;;;;0.04;82.41;96296.06;29373;207;63009;-60
2021/12/03 00:21:53;;;;;;;0.80;0.80;;;;;;;-0.01;82.69;96289.63;29373;202;63004;-65
2021/12/03 00:22:25;;;;;;;0.80;0.80;;;;;;;-0.06;83.05;96294.06;29371;206;64008;-63
2021/12/03 00:22:58;;;;;;;0.80;0.80;;;;;;;-0.11;83.46;96294.78;29373;246;63005;-63
2021/12/03 00:23:30;;;;;;;0.80;0.80;;;;;;;-0.16;83.83;96302.69;29373;242;63009;-62
2021/12/03 00:24:01;;;;;;;0.80;0.80;;;;;;;-0.21;84.14;96299.91;29373;221;63005;-67
2021/12/03 00:24:33;;;;;;;0.80;0.80;;;;;;;-0.26;84.40;96307.81;29373;247;63009;-64
2021/12/03 00:25:06;;;;;;;0.80;0.80;;;;;;;-0.27;84.85;96306.19;29373;205;63005;-63
2021/12/03 00:25:37;;;;;;;0.80;0.80;;;;;;;-0.28;84.90;96311.78;29373;200;63009;-63
2021/12/03 00:26:09;;;;;;;0.80;0.80;;;;;;;-0.27;85.00;96310.72;29371;209;64005;-66
2021/12/03 00:26:40;;;;;;;0.80;0.80;;;;;;;-0.30;85.04;96314.66;29371;230;64009;-58
2021/12/03 00:27:11;;;;;;;0.80;0.80;;;;;;;-0.34;85.09;96316.19;29373;197;63004;-65
2021/12/03 00:27:43;;;;;;;1.80;1.80;;;;;;;-0.34;85.49;96318.84;29373;228;63009;-63
2021/12/03 00:28:14;;;;;;;0.80;0.80;;;;;;;-0.36;85.43;96318.31;29373;230;63004;-63
2021/12/03 00:28:45;;;;;;;0.80;0.80;;;;;;;-0.37;85.60;96316.69;29373;210;63019;-66
2021/12/03 00:29:17;;;;;;;0.80;0.80;;;;;;;-0.31;85.52;96321.06;29373;199;63004;-67
2021/12/03 00:29:48;;;;;;;0.80;0.80;;;;;;;-0.27;85.05;96316.06;29373;219;63008;-64
2021/12/03 00:30:19;;;;;;;0.80;0.80;;;;;;;-0.23;84.64;96327.87;29373;258;63004;-67
2021/12/03 00:30:52;;;;;;;0.80;0.80;;;;;;;-0.22;84.70;96316.16;29371;228;64009;-60
2021/12/03 00:31:23;;;;;;;0.80;0.80;;;;;;;-0.23;84.65;96334.00;29371;257;64005;-62
2021/12/03 00:31:54;;;;;;;0.80;0.80;;;;;;;-0.22;84.75;96330.28;29371;219;64009;-66
2021/12/03 00:32:25;;;;;;;0.80;0.80;;;;;;;-0.21;84.77;96331.09;29372;214;64005;-65
2021/12/03 00:32:57;;;;;;;0.80;0.80;;;;;;;-0.25;84.79;96329.97;29373;203;63009;-65
2021/12/03 00:33:30;;;;;;;0.80;0.80;;;;;;;-0.26;84.96;96329.16;29373;202;63010;-66
2021/12/03 00:34:01;;;;;;;0.80;0.80;;;;;;;-0.19;84.66;96332.50;29373;211;63024;-65
2021/12/03 00:34:32;;;;;;;0.80;0.80;;;;;;;-0.22;84.56;96329.47;29372;288;64005;-66
2021/12/03 00:35:05;;;;;;;0.80;0.80;;;;;;;-0.28;84.75;96331.25;29373;252;63027;-69
2021/12/03 00:35:37;;;;;;;0.80;0.80;;;;;;;-0.34;85.02;96326.84;29373;230;63004;-67
2021/12/03 00:36:10;;;;;;;0.80;0.80;;;;;;;-0.39;85.20;96327.59;29371;262;64009;-64
2021/12/03 00:36:41;;;;;;;0.80;0.80;;;;;;;-0.37;85.49;96333.50;29373;226;63004;-63
2021/12/03 00:37:13;;;;;;;0.80;0.80;;;;;;;-0.37;85.60;96333.50;29373;263;63008;-67
2021/12/03 00:37:46;;;;;;;1.58;1.52;;;;;;;-0.38;85.73;96325.75;29373;241;63004;-68
2021/12/03 00:38:17;;;;;;;0.80;0.80;;;;;;;-0.40;85.87;96333.16;29373;197;63009;-65
2021/12/03 00:38:53;;;;;;;0.80;0.80;;;;;;;-0.43;86.04;96328.31;29373;216;63008;-65
2021/12/03 00:39:26;;;;;;;0.80;0.80;;;;;;;-0.44;86.22;96326.69;29373;200;63009;-68
2021/12/03 00:39:58;;;;;;;0.80;0.80;;;;;;;-0.46;86.19;96328.78;29373;223;63005;-69
2021/12/03 00:40:37;;;;;;;0.80;0.80;;;;;;;-0.44;86.45;96337.34;29373;255;63026;-69
2021/12/03 00:41:13;;;;;;;0.80;0.80;;;;;;;-0.44;86.32;96335.50;29371;238;64005;-66
2021/12/03 00:41:51;;;;;;;0.80;0.80;;;;;;;-0.46;86.16;96331.44;29373;266;63009;-64
2021/12/03 00:42:23;;;;;;;0.80;0.80;;;;;;;-0.50;86.35;96327.63;29373;199;63004;-67
2021/12/03 00:42:55;;;;;;;0.80;0.80;;;;;;;-0.51;86.49;96331.34;29373;265;63009;-64
2021/12/03 00:43:26;;;;;;;0.80;0.80;;;;;;;-0.51;86.70;96331.34;29371;247;64004;-66
2021/12/03 00:43:57;;;;;;;0.80;0.80;;;;;;;-0.45;86.50;96331.19;29373;256;63009;-62
2021/12/03 00:44:30;;;;;;;0.80;0.80;;;;;;;-0.41;nan;96331.53;29373;218;63004;-62
2021/12/03 00:45:05;;;;;;;0.80;0.80;;;;;;;-0.37;86.25;96330.84;29373;236;63008;-64
2021/12/03 00:45:36;;;;;;;0.80;0.80;;;;;;;-0.37;86.03;96338.03;29371;214;64005;-62
2021/12/03 00:46:09;;;;;;;0.80;0.80;;;;;;;-0.36;85.96;96334.31;29373;222;63016;-61
2021/12/03 00:46:44;;;;;;;0.88;0.88;;;;;;;-0.30;85.37;96338.66;29373;282;63005;-64
2021/12/03 00:47:15;;;;;;;0.80;0.80;;;;;;;-0.30;85.13;96341.34;29373;202;63009;-68
2021/12/03 00:47:46;;;;;;;0.90;0.90;;;;;;;-0.33;85.32;96344.47;29373;217;63005;-64
2021/12/03 00:48:17;;;;;;;0.77;0.77;;;;;;;-0.36;85.73;96339.62;29373;217;63009;-64
2021/12/03 00:48:51;;;;;;;0.80;0.80;;;;;;;-0.36;86.00;96344.97;29373;208;63005;-62
2021/12/03 00:49:22;;;;;;;0.80;0.80;;;;;;;-0.33;85.72;96344.47;29373;214;63009;-63
2021/12/03 00:49:53;;;;;;;0.80;0.80;;;;;;;-0.31;85.48;96342.37;29373;202;63004;-62
2021/12/03 00:50:26;;;;;;;0.80;0.80;;;;;;;-0.26;85.05;96350.47;29373;214;63015;-62
2021/12/03 00:50:57;;;;;;;0.80;0.80;;;;;;;-0.27;84.64;96343.53;29371;213;64004;-64
2021/12/03 00:51:29;;;;;;;0.80;0.80;;;;;;;-0.27;85.09;96342.72;29373;239;63008;-67
2021/12/03 00:52:00;;;;;;;0.80;0.80;;;;;;;-0.26;85.15;96347.81;29373;225;63004;-61
2021/12/03 00:52:32;;;;;;;0.80;0.80;;;;;;;-0.26;85.00;96345.16;29373;233;63008;-60
2021/12/03 00:53:03;;;;;;;0.80;0.80;;;;;;;-0.25;84.74;96349.44;29371;208;64004;-70
2021/12/03 00:53:35;;;;;;;0.90;0.90;;;;;;;-0.28;84.84;96352.56;29373;197;63009;-60
2021/12/03 00:54:08;;;;;;;0.80;0.80;;;;;;;-0.27;85.01;96348.03;29373;202;63005;-63
2021/12/03 00:54:39;;;;;;;0.80;0.80;;;;;;;-0.24;84.84;96347.56;29373;232;63009;-62
2021/12/03 00:55:11;;;;;;;0.80;0.80;;;;;;;-0.24;84.88;96347.56;29373;234;63005;-64
2021/12/03 00:55:42;;;;;;;0.80;0.80;;;;;;;-0.25;84.76;96344.09;29373;262;63009;-63
2021/12/03 00:56:15;;;;;;;0.80;0.80;;;;;;;-0.23;84.57;96344.66;29373;218;63013;-58
2021/12/03 00:56:46;;;;;;;1.15;1.15;;;;;;;-0.22;84.44;96351.63;29373;239;63009;-65
2021/12/03 00:57:18;;;;;;;0.80;0.80;;;;;;;-0.21;84.54;96347.91;29371;237;64004;-68
2021/12/03 00:57:49;;;;;;;0.80;0.80;;;;;;;-0.19;84.37;96351.16;29371;232;64009;-63
2021/12/03 00:58:20;;;;;;;0.80;0.80;;;;;;;-0.19;84.09;96351.16;29373;244;63004;-65
2021/12/03 00:58:53;;;;;;;0.80;0.80;;;;;;;-0.21;84.18;96352.44;29373;199;63009;-67
2021/12/03 00:59:24;;;;;;;0.80;0.80;;;;;;;-0.25;84.62;96352.09;29373;245;63004;-62
2021/12/03 00:59:56;;;;;;;0.80;0.80;;;;;;;-0.24;84.74;96353.72;29373;204;63009;-64
2021/12/03 01:00:30;;;;;;;0.80;0.80;;;;;;;-0.19;84.37;96353.81;29373;203;63005;-66
2021/12/03 01:01:03;;;;;;;0.80;0.80;;;;;;;-0.19;84.43;96356.47;29373;223;63009;-63
2021/12/03 01:01:34;;;;;;;0.80;0.80;;;;;;;-0.20;84.25;96360.19;29373;224;63005;-62
2021/12/03 01:02:06;;;;;;;0.80;0.80;;;;;;;-0.23;84.37;96359.84;29373;202;63009;-64
2021/12/03 01:02:37;;;;;;;0.80;0.80;;;;;;;-0.24;84.63;96363.56;29373;209;63005;-68
2021/12/03 01:03:08;;;;;;;0.80;0.80;;;;;;;-0.19;84.38;96367.16;29371;213;64009;-59
2021/12/03 01:03:40;;;;;;;0.80;0.80;;;;;;;-0.19;84.37;96367.16;29373;266;63005;-68
2021/12/03 01:04:12;;;;;;;0.80;0.80;;;;;;;-0.18;84.03;96362.62;29373;216;63009;-66
2021/12/03 01:04:43;;;;;;;0.80;0.80;;;;;;;-0.19;84.15;96364.47;29373;209;63004;-63
2021/12/03 01:05:14;;;;;;;0.80;0.80;;;;;;;-0.17;84.04;96366.91;29373;266;63009;-65
2021/12/03 01:05:46;;;;;;;0.88;0.88;;;;;;;-0.18;84.01;96373.28;29373;210;63004;-63
2021/12/03 01:06:17;;;;;;;0.80;0.80;;;;;;;-0.21;84.21;96363.91;29373;214;63009;-68
2021/12/03 01:06:49;;;;;;;1.10;1.10;;;;;;;-0.18;84.10;96367.97;29373;253;63004;-69
2021/12/03 01:07:20;;;;;;;0.80;0.80;;;;;;;-0.20;83.79;96368.19;29371;206;64022;-62
2021/12/03 01:07:51;;;;;;;0.80;0.80;;;;;;;-0.20;84.01;96373.53;29373;225;63005;-64
2021/12/03 01:08:23;;;;;;;0.80;0.80;;;;;;;-0.19;84.16;96372.47;29373;223;63009;-64
2021/12/03 01:08:54;;;;;;;0.80;0.80;;;;;;;-0.20;84.22;96362.88;29373;209;63005;-66
2021/12/03 01:09:25;;;;;;;0.80;0.80;;;;;;;-0.20;84.13;96370.84;29373;218;63009;-65
2021/12/03 01:09:57;;;;;;;0.70;0.70;;;;;;;-0.22;84.00;96362.28;29373;234;63005;-66
2021/12/03 01:10:29;;;;;;;0.80;0.80;;;;;;;-0.21;83.82;96374.56;29373;261;63009;-63
2021/12/03 01:11:01;;;;;;;0.80;0.80;;;;;;;-0.23;84.23;96371.34;29373;259;63018;-67
2021/12/03 01:11:32;;;;;;;0.88;0.88;;;;;;;-0.23;84.22;96368.66;29373;214;63009;-67
2021/12/03 01:12:04;;;;;;;0.80;0.80;;;;;;;-0.22;84.51;96367.63;29373;216;63014;-67
2021/12/03 01:12:37;;;;;;;0.90;0.90;;;;;;;-0.24;84.53;96375.03;29371;203;64009;-59
2021/12/03 01:13:08;;;;;;;0.90;0.90;;;;;;;-0.22;84.54;96372.94;29371;230;64004;-61
2021/12/03 01:13:42;;;;;;;0.80;0.80;;;;;;;-0.18;84.10;96368.78;29371;234;64009;-62
2021/12/03 01:14:13;;;;;;;0.90;0.90;;;;;;;-0.15;84.09;96368.28;29373;205;63004;-62
2021/12/03 01:14:44;;;;;;;0.80;0.80;;;;;;;-0.16;83.81;96366.69;29373;228;63008;-63
2021/12/03 01:15:23;;;;;;;0.80;0.80;;;;;;;-0.18;84.03;96368.78;29373;227;63005;-62
2021/12/03 01:15:54;;;;;;;0.90;0.90;;;;;;;-0.16;83.86;96365.87;29373;244;63009;-63
2021/12/03 01:16:26;;;;;;;0.80;0.80;;;;;;;-0.15;84.12;96370.97;29373;222;63005;-62
2021/12/03 01:16:57;;;;;;;0.88;0.88;;;;;;;-0.16;84.11;96371.19;29373;221;63009;-64
2021/12/03 01:17:30;;;;;;;0.90;0.90;;;;;;;-0.19;84.31;96369.81;29373;198;63005;-65
2021/12/03 01:18:04;;;;;;;0.80;0.80;;;;;;;-0.15;84.23;96378.97;29373;197;63009;-66
2021/12/03 01:18:36;;;;;;;0.90;0.90;;;;;;;-0.17;84.11;96378.38;29371;245;64005;-64
2021/12/03 01:19:07;;;;;;;1.37;1.27;;;;;;;-0.23;84.41;96376.66;29373;249;63009;-63
2021/12/03 01:19:38;;;;;;;0.80;0.80;;;;;;;-0.26;84.60;96387.81;29373;245;63004;-66
2021/12/03 01:20:13;;;;;;;0.85;0.85;;;;;;;-0.30;84.86;96376.00;29373;207;63009;-67
2021/12/03 01:20:45;;;;;;;0.80;0.80;;;;;;;-0.36;85.16;96383.09;29373;206;63014;-63
2021/12/03 01:21:16;;;;;;;1.00;1.00;;;;;;;-0.29;85.28;96388.28;29373;236;63009;-67
2021/12/03 01:21:47;;;;;;;0.80;0.80;;;;;;;-0.27;85.08;96388.84;29373;228;63004;-63
2021/12/03 01:22:18;;;;;;;0.90;0.90;;;;;;;-0.21;85.00;96385.25;29373;210;63008;-62
2021/12/03 01:22:53;;;;;;;0.80;0.80;;;;;;;-0.20;84.80;96384.19;29373;197;63005;-66
2021/12/03 01:23:24;;;;;;;1.00;1.00;;;;;;;-0.18;84.67;96390.09;29371;255;64009;-68
2021/12/03 01:23:56;;;;;;;0.80;0.80;;;;;;;-0.22;84.83;96386.28;29373;261;63005;-66
2021/12/03 01:24:28;;;;;;;0.80;0.80;;;;;;;-0.25;85.12;96400.09;29372;267;64009;-64
2021/12/03 01:25:00;;;;;;;0.90;0.90;;;;;;;-0.13;84.43;96390.19;29373;253;63005;-67
2021/12/03 01:25:32;;;;;;;0.80;0.80;;;;;;;-0.14;83.93;96391.25;29373;210;63009;-64
2021/12/03 01:26:04;;;;;;;0.80;0.80;;;;;;;-0.15;83.96;96389.63;29373;236;63005;-63
2021/12/03 01:26:39;;;;;;;0.80;0.80;;;;;;;-0.19;84.17;96391.16;29373;254;63009;-69
2021/12/03 01:27:10;;;;;;;0.80;0.80;;;;;;;-0.23;84.63;96387.31;29373;203;63004;-64
2021/12/03 01:27:42;;;;;;;0.70;0.70;;;;;;;-0.27;84.70;96390.69;29371;262;64009;-66
2021/12/03 01:28:15;;;;;;;0.80;0.80;;;;;;;-0.31;84.99;96394.88;29371;213;64004;-67
2021/12/03 01:28:47;;;;;;;0.70;0.70;;;;;;;-0.36;85.12;96398.28;29373;222;63009;-59
2021/12/03 01:29:18;;;;;;;0.70;0.70;;;;;;;-0.36;85.79;96393.75;29373;221;63004;-63
2021/12/03 01:29:49;;;;;;;0.80;0.80;;;;;;;-0.34;85.41;96393.50;29373;254;63008;-66
2021/12/03 01:30:23;;;;;;;0.80;0.80;;;;;;;-0.35;85.64;96391.91;29372;203;63005;-66
2021/12/03 01:30:56;;;;;;;0.80;0.80;;;;;;;-0.27;85.25;96388.84;29373;250;63009;-67
2021/12/03 01:31:27;;;;;;;0.80;0.80;;;;;;;-0.21;85.30;96389.75;29373;219;63005;-66
2021/12/03 01:31:58;;;;;;;0.70;0.70;;;;;;;-0.16;84.87;96398.69;29371;267;64009;-69
2021/12/03 01:32:30;;;;;;;0.80;0.80;;;;;;;-0.16;84.78;96397.88;29373;206;63005;-64
2021/12/03 01:33:05;;;;;;;0.80;0.80;;;;;;;-0.13;84.61;96406.19;29373;230;63009;-64
2021/12/03 01:33:36;;;;;;;0.80;0.80;;;;;;;-0.10;84.43;96403.06;29373;212;63010;-57
2021/12/03 01:34:07;;;;;;;0.80;0.80;;;;;;;-0.17;84.56;96399.72;29373;235;63009;-66
2021/12/03 01:34:38;;;;;;;0.80;0.80;;;;;;;-0.16;84.56;96397.88;29373;211;63004;-66
2021/12/03 01:35:10;;;;;;;0.80;0.80;;;;;;;-0.14;84.43;96401.09;29373;220;63009;-72
2021/12/03 01:35:42;;;;;;;0.70;0.70;;;;;;;-0.14;84.50;96407.25;29373;265;63004;-65
2021/12/03 01:36:14;;;;;;;0.90;0.90;;;;;;;-0.09;84.35;96404.69;29373;206;63009;-62
2021/12/03 01:36:46;;;;;;;0.80;0.80;;;;;;;-0.09;84.24;96404.69;29373;222;63004;-63
2021/12/03 01:37:17;;;;;;;0.80;0.80;;;;;;;-0.08;84.13;96403.63;29371;196;64008;-64
2021/12/03 01:37:49;;;;;;;0.70;0.70;;;;;;;-0.08;84.32;96405.50;29373;244;63005;-65
2021/12/03 01:38:20;;;;;;;0.80;0.80;;;;;;;-0.15;84.38;96402.97;29373;205;63009;-67
2021/12/03 01:38:51;;;;;;;0.80;0.80;;;;;;;-0.17;84.71;96399.72;29373;225;63005;-66
2021/12/03 01:39:23;;;;;;;0.80;0.80;;;;;;;-0.22;84.76;96406.81;29373;233;63009;-65
2021/12/03 01:39:54;;;;;;;0.80;0.80;;;;;;;-0.22;85.06;96410.28;29373;223;63005;-66
2021/12/03 01:40:28;;;;;;;0.80;0.80;;;;;;;-0.22;84.98;96401.47;29373;205;63009;-69
2021/12/03 01:40:59;;;;;;;0.80;0.80;;;;;;;-0.20;84.78;96405.53;29373;227;63005;-67
2021/12/03 01:41:32;;;;;;;0.80;0.80;;;;;;;-0.15;84.41;96405.63;29373;227;63009;-67
2021/12/03 01:42:05;;;;;;;1.05;1.05;;;;;;;-0.11;84.44;96405.97;29371;265;64004;-66
2021/12/03 01:42:38;;;;;;;0.80;0.80;;;;;;;-0.13;84.25;96400.06;29373;232;63009;-63
2021/12/03 01:43:15;;;;;;;0.80;0.80;;;;;;;-0.14;84.43;96412.59;29373;238;63004;-67
2021/12/03 01:43:47;;;;;;;1.10;1.10;;;;;;;-0.13;84.38;96406.19;29373;286;63009;-66
2021/12/03 01:44:18;;;;;;;0.80;0.80;;;;;;;-0.10;84.41;96402.25;29373;202;63004;-70
2021/12/03 01:44:49;;;;;;;0.80;0.80;;;;;;;-0.10;83.97;96400.41;29373;218;63008;-66
2021/12/03 01:45:30;;;;;;;0.90;0.90;;;;;;;-0.09;83.94;96402.03;29371;242;64005;-65
2021/12/03 01:46:10;;;;;;;0.80;0.80;;;;;;;-0.11;84.11;96404.13;29395;226;63009;-70
2021/12/03 01:46:42;;;;;;;0.80;0.80;;;;;;;-0.15;84.65;96408.28;29417;256;63005;-68
2021/12/03 01:47:17;;;;;;;1.70;1.60;;;;;;;-0.18;84.68;96411.44;29394;204;64009;-67
2021/12/03 01:47:50;;;;;;;0.80;0.80;;;;;;;-0.18;84.92;96405.28;29373;215;63005;-66
2021/12/03 01:48:22;;;;;;;0.80;0.80;;;;;;;-0.19;84.61;96401.81;29373;241;63016;-67
2021/12/03 01:48:53;;;;;;;0.80;0.80;;;;;;;-0.17;84.50;96397.06;29372;197;64005;-64
2021/12/03 01:49:24;;;;;;;0.85;0.85;;;;;;;-0.18;84.45;96408.75;29373;203;63009;-67
2021/12/03 01:49:56;;;;;;;0.80;0.80;;;;;;;-0.18;84.67;96403.44;29373;230;63004;-69
2021/12/03 01:50:38;;;;;;;0.80;0.80;;;;;;;-0.18;84.23;96405.28;29373;238;63028;-71
2021/12/03 01:51:10;;;;;;;0.80;0.80;;;;;;;-0.19;84.44;96399.16;29373;266;63004;-68
2021/12/03 01:51:43;;;;;;;0.80;0.80;;;;;;;-0.17;84.42;96402.38;29371;265;64009;-65
2021/12/03 01:52:14;;;;;;;0.90;0.90;;;;;;;-0.15;84.13;96410.97;29373;206;63004;-68
2021/12/03 01:52:46;;;;;;;0.80;0.80;;;;;;;-0.14;84.12;96401.09;29373;232;63009;-68
2021/12/03 01:53:21;;;;;;;0.90;0.90;;;;;;;-0.16;84.20;96405.88;29373;213;63005;-72
2021/12/03 01:53:54;;;;;;;0.80;0.80;;;;;;;-0.18;84.31;96416.75;29373;237;63009;-68
2021/12/03 01:54:25;;;;;;;0.80;0.80;;;;;;;-0.17;84.42;96405.06;29371;208;64005;-68
2021/12/03 01:54:59;;;;;;;0.80;0.80;;;;;;;-0.20;84.56;96408.19;29373;234;63009;-69
2021/12/03 01:55:31;;;;;;;0.80;0.80;;;;;;;-0.23;84.83;96414.00;29373;227;63005;-67
2021/12/03 01:56:08;;;;;;;1.70;1.60;;;;;;;-0.27;84.86;96404.03;29373;220;63009;-68
2021/12/03 01:56:40;;;;;;;0.80;0.80;;;;;;;-0.24;84.67;96408.91;29373;233;63004;-68
2021/12/03 01:57:11;;;;;;;1.05;1.05;;;;;;;-0.21;84.41;96411.09;29373;204;63009;-69
2021/12/03 01:57:42;;;;;;;0.80;0.80;;;;;;;-0.18;84.33;96405.28;29373;198;63004;-69
2021/12/03 01:58:15;;;;;;;0.80;0.80;;;;;;;-0.19;84.11;96403.66;29371;224;64009;-66
2021/12/03 01:58:47;;;;;;;0.77;0.77;;;;;;;-0.18;84.35;96405.28;29373;266;63004;-64
2021/12/03 01:59:18;;;;;;;0.80;0.80;;;;;;;-0.19;84.29;96404.47;29373;248;63008;-67
2021/12/03 01:59:50;;;;;;;0.90;0.90;;;;;;;-0.17;84.03;96407.72;29373;270;63004;-68
2021/12/03 02:00:31;;;;;;;0.80;0.80;;;;;;;-0.24;84.10;96411.56;29373;213;63009;-57
2021/12/03 02:01:11;;;;;;;1.10;1.10;;;;;;;-0.22;84.09;96401.47;29395;229;63010;-65
2021/12/03 02:01:43;;;;;;;0.80;0.80;;;;;;;-0.25;83.84;96410.75;29395;228;63009;-71
2021/12/03 02:02:14;;;;;;;0.80;0.80;;;;;;;-0.29;84.48;96403.47;29373;258;63005;-72
2021/12/03 02:02:45;;;;;;;0.80;0.80;;;;;;;-0.35;84.52;96405.22;29371;197;64009;-69
2021/12/03 02:03:19;;;;;;;0.80;0.80;;;;;;;-0.38;85.05;96405.69;29373;231;63005;-68
2021/12/03 02:03:55;;;;;;;0.80;0.80;;;;;;;-0.36;84.90;96406.28;29373;224;63009;-66
2021/12/03 02:04:27;;;;;;;0.80;0.80;;;;;;;-0.38;84.87;96413.69;29373;237;63004;-69
2021/12/03 02:04:58;;;;;;;0.80;0.80;;;;;;;-0.40;85.15;96405.13;29371;222;64009;-68
2021/12/03 02:05:30;;;;;;;0.80;0.80;;;;;;;-0.39;85.38;96409.41;29373;219;63011;-70
2021/12/03 02:06:02;;;;;;;0.80;0.80;;;;;;;-0.33;84.89;96411.13;29373;209;63009;-66
2021/12/03 02:06:34;;;;;;;0.80;0.80;;;;;;;-0.32;84.49;96409.25;29373;222;63004;-71
2021/12/03 02:07:07;;;;;;;0.80;0.80;;;;;;;-0.36;84.62;96414.28;29373;199;63009;-65
2021/12/03 02:07:39;;;;;;;0.80;0.80;;;;;;;-0.39;84.66;96414.75;29373;213;63005;-56
2021/12/03 02:08:10;;;;;;;0.80;0.80;;;;;;;-0.42;85.14;96415.22;29372;209;63009;-69
2021/12/03 02:08:43;;;;;;;0.90;0.90;;;;;;;-0.46;85.37;96408.72;29373;263;63005;-69
2021/12/03 02:09:14;;;;;;;0.80;0.80;;;;;;;-0.51;85.25;96421.94;29371;223;64009;-65
2021/12/03 02:09:46;;;;;;;0.80;0.80;;;;;;;-0.51;85.67;96416.63;29373;204;63005;-71
2021/12/03 02:10:19;;;;;;;0.80;0.80;;;;;;;-0.54;85.64;96411.75;29373;233;63009;-74
2021/12/03 02:10:51;;;;;;;0.80;0.80;;;;;;;-0.56;85.79;96411.97;29373;240;63005;-73
2021/12/03 02:11:24;;;;;;;0.80;0.80;;;;;;;-0.57;85.84;96407.69;29373;286;63009;-71
2021/12/03 02:11:55;;;;;;;0.80;0.80;;;;;;;-0.59;86.05;96414.28;29373;265;63004;-71
2021/12/03 02:12:26;;;;;;;0.80;0.80;;;;;;;-0.63;85.95;96413.13;29371;280;64009;-57
2021/12/03 02:12:58;;;;;;;0.80;0.80;;;;;;;-0.65;86.48;96412.56;29373;227;63004;-72
2021/12/03 02:13:30;;;;;;;0.80;0.80;;;;;;;-0.66;86.56;96409.09;29373;261;63009;-57
2021/12/03 02:14:01;;;;;;;0.80;0.80;;;;;;;-0.69;86.87;96413.03;29373;202;63004;-69
2021/12/03 02:14:33;;;;;;;0.80;0.80;;;;;;;-0.67;86.98;96412.78;29373;217;63009;-72
2021/12/03 02:15:06;;;;;;;0.80;0.80;;;;;;;-0.69;86.99;96410.37;29373;222;63015;-70
2021/12/03 02:15:39;;;;;;;0.80;0.80;;;;;;;-0.69;87.07;96410.37;29373;300;63009;-71
2021/12/03 02:16:12;;;;;;;0.80;0.80;;;;;;;-0.71;87.16;96403.69;29371;214;64005;-70
2021/12/03 02:16:45;;;;;;;0.80;0.80;;;;;;;-0.71;87.33;96409.00;29373;229;63009;-70
2021/12/03 02:17:17;;;;;;;0.80;0.80;;;;;;;-0.71;87.47;96412.47;29373;214;63005;-71
2021/12/03 02:17:49;;;;;;;0.80;0.80;;;;;;;-0.71;87.57;96407.16;29373;208;63028;-71
2021/12/03 02:18:20;;;;;;;0.80;0.80;;;;;;;-0.69;87.68;96410.37;29373;225;63005;-70
2021/12/03 02:18:53;;;;;;;0.80;0.80;;;;;;;-0.70;87.45;96413.28;29373;295;63009;-67
2021/12/03 02:19:24;;;;;;;0.80;0.80;;;;;;;-0.72;87.47;96413.53;29373;227;63004;-69
2021/12/03 02:19:56;;;;;;;0.80;0.80;;;;;;;-0.73;87.64;96414.56;29373;279;63009;-71
2021/12/03 02:20:27;;;;;;;0.80;0.80;;;;;;;-0.71;87.63;96412.47;29373;211;63004;-72
2021/12/03 02:21:02;;;;;;;0.80;0.80;;;;;;;-0.73;87.53;96424.41;29373;218;63009;-73
2021/12/03 02:21:33;;;;;;;0.80;0.80;;;;;;;-0.78;87.62;96414.44;29371;252;64016;-72
2021/12/03 02:22:05;;;;;;;0.80;0.80;;;;;;;-0.79;87.70;96415.50;29373;233;63009;-72
2021/12/03 02:22:37;;;;;;;0.80;0.80;;;;;;;-0.77;87.72;96417.91;29373;197;63005;-70
2021/12/03 02:23:09;;;;;;;0.80;0.80;;;;;;;-0.73;87.67;96419.91;29373;250;63025;-70
2021/12/03 02:23:41;;;;;;;0.80;0.80;;;;;;;-0.70;87.47;96419.44;29371;246;64005;-72
2021/12/03 02:24:14;;;;;;;0.80;0.80;;;;;;;-0.71;87.40;96417.00;29373;250;63012;-73
2021/12/03 02:24:46;;;;;;;0.80;0.80;;;;;;;-0.75;87.07;96415.84;29371;218;64005;-71
2021/12/03 02:25:20;;;;;;;0.80;0.80;;;;;;;-0.80;87.30;96423.72;29373;202;63009;-70
2021/12/03 02:25:52;;;;;;;0.80;0.80;;;;;;;-0.77;87.57;96417.91;29373;204;63005;-71
2021/12/03 02:26:24;;;;;;;0.80;0.80;;;;;;;-0.76;87.47;96424.88;29371;215;64009;-69
2021/12/03 02:26:55;;;;;;;0.80;0.80;;;;;;;-0.77;87.45;96417.91;29373;232;63004;-69
2021/12/03 02:27:27;;;;;;;0.80;0.80;;;;;;;-0.76;87.55;96420.34;29373;239;63009;-70
2021/12/03 02:27:58;;;;;;;0.80;0.80;;;;;;;-0.77;87.58;96425.91;29373;222;63004;-69
2021/12/03 02:28:32;;;;;;;0.80;0.80;;;;;;;-0.76;87.75;96425.69;29373;262;63009;-67
2021/12/03 02:29:04;;;;;;;0.80;0.80;;;;;;;-0.75;87.84;96421.97;29373;202;63004;-71
2021/12/03 02:29:35;;;;;;;0.80;0.80;;;;;;;-0.75;87.73;96427.31;29373;231;63009;-71
2021/12/03 02:30:08;;;;;;;0.80;0.80;;;;;;;-0.77;87.74;96428.56;29371;219;64005;-67
2021/12/03 02:30:41;;;;;;;0.80;0.80;;;;;;;-0.76;87.95;96431.00;29373;225;63009;-72
2021/12/03 02:31:14;;;;;;;0.80;0.80;;;;;;;-0.78;88.03;96427.75;29371;216;64005;-71
2021/12/03 02:31:45;;;;;;;0.80;0.80;;;;;;;-0.78;87.94;96434.94;29373;202;63009;-70
2021/12/03 02:32:17;;;;;;;0.80;0.80;;;;;;;-0.79;87.96;96431.47;29373;220;63005;-56
2021/12/03 02:32:50;;;;;;;0.80;0.80;;;;;;;-0.80;88.10;96429.84;29373;199;63009;-71
2021/12/03 02:33:21;;;;;;;0.80;0.80;;;;;;;-0.80;87.98;96435.19;29373;204;63005;-70
2021/12/03 02:33:54;;;;;;;0.80;0.80;;;;;;;-0.79;88.25;96431.47;29371;238;64009;-69
2021/12/03 02:34:25;;;;;;;0.80;0.80;;;;;;;-0.74;88.03;96434.25;29373;217;63009;-67